createdAt,value
2017-04-23T00:00:12.204Z,0
2017-04-23T00:00:52.827Z,0
2017-04-23T00:01:33.422Z,0
2017-04-23T00:02:14.048Z,0
2017-04-23T00:02:54.632Z,0
2017-04-23T00:03:35.230Z,0
2017-04-23T00:04:15.863Z,0
2017-04-23T00:04:57.169Z,0
2017-04-23T00:05:37.804Z,0
2017-04-23T00:06:18.356Z,0
2017-04-23T00:06:58.962Z,0
2017-04-23T00:07:39.564Z,0
2017-04-23T00:08:20.162Z,0
2017-04-23T00:09:00.835Z,0
2017-04-23T00:09:41.428Z,0
2017-04-23T00:10:22.038Z,0
2017-04-23T00:11:02.695Z,0
2017-04-23T00:11:43.342Z,0
2017-04-23T00:12:23.922Z,0
2017-04-23T00:13:04.496Z,0
2017-04-23T00:13:45.107Z,0
2017-04-23T00:14:25.698Z,0
2017-04-23T00:15:06.310Z,0
2017-04-23T00:15:46.891Z,0
2017-04-23T00:16:27.543Z,0
2017-04-23T00:17:08.145Z,0
2017-04-23T00:17:48.744Z,0
2017-04-23T00:18:29.376Z,0
2017-04-23T00:19:09.958Z,0
2017-04-23T00:19:50.591Z,0
2017-04-23T00:20:31.194Z,0
2017-04-23T00:21:11.824Z,0
2017-04-23T00:21:52.465Z,0
2017-04-23T00:22:33.078Z,0
2017-04-23T00:23:13.675Z,0
2017-04-23T00:23:54.260Z,0
2017-04-23T00:24:34.847Z,0
2017-04-23T00:25:15.448Z,0
2017-04-23T00:25:56.043Z,0
2017-04-23T00:26:36.668Z,0
2017-04-23T00:27:17.230Z,0
2017-04-23T00:27:57.818Z,0
2017-04-23T00:28:38.456Z,0
2017-04-23T00:29:19.104Z,0
2017-04-23T00:29:59.680Z,0
2017-04-23T00:30:40.307Z,0
2017-04-23T00:31:20.918Z,0
2017-04-23T00:32:01.544Z,0
2017-04-23T00:32:42.138Z,0
2017-04-23T00:33:22.728Z,0
2017-04-23T00:34:03.444Z,0
2017-04-23T00:34:44.022Z,0
2017-04-23T00:35:24.612Z,0
2017-04-23T00:36:05.244Z,0
2017-04-23T00:36:45.860Z,0
2017-04-23T00:37:26.478Z,0
2017-04-23T00:38:07.087Z,0
2017-04-23T00:38:47.690Z,0
2017-04-23T00:39:28.286Z,0
2017-04-23T00:40:08.880Z,0
2017-04-23T00:40:49.508Z,0
2017-04-23T00:41:30.103Z,0
2017-04-23T00:42:10.714Z,0
2017-04-23T00:42:51.327Z,0
2017-04-23T00:43:31.905Z,0
2017-04-23T00:44:12.555Z,0
2017-04-23T00:44:53.138Z,0
2017-04-23T00:45:33.725Z,0
2017-04-23T00:46:14.311Z,0
2017-04-23T00:46:54.912Z,0
2017-04-23T00:47:35.495Z,0
2017-04-23T00:48:16.081Z,0
2017-04-23T00:48:56.680Z,0
2017-04-23T00:49:37.285Z,0
2017-04-23T00:50:17.883Z,0
2017-04-23T00:50:58.492Z,0
2017-04-23T00:51:39.095Z,0
2017-04-23T00:52:19.687Z,0
2017-04-23T00:53:00.303Z,0
2017-04-23T00:53:40.888Z,0
2017-04-23T00:54:21.468Z,0
2017-04-23T00:55:02.067Z,0
2017-04-23T00:55:42.659Z,0
2017-04-23T00:56:23.281Z,0
2017-04-23T00:57:03.869Z,0
2017-04-23T00:57:44.506Z,0
2017-04-23T00:58:25.116Z,0
2017-04-23T00:59:05.698Z,0
2017-04-23T00:59:46.278Z,0
2017-04-23T01:00:26.866Z,0
2017-04-23T01:01:07.469Z,0
2017-04-23T01:01:48.045Z,0
2017-04-23T01:02:28.623Z,0
2017-04-23T01:03:09.215Z,0
2017-04-23T01:03:49.816Z,0
2017-04-23T01:04:30.423Z,0
2017-04-23T01:05:11.022Z,0
2017-04-23T01:05:51.619Z,0
2017-04-23T01:06:32.207Z,0
2017-04-23T01:07:12.823Z,0
2017-04-23T01:07:53.418Z,0
2017-04-23T01:08:34.035Z,0
2017-04-23T01:09:14.626Z,0
2017-04-23T01:09:55.231Z,0
2017-04-23T01:10:35.797Z,0
2017-04-23T01:11:16.361Z,0
2017-04-23T01:11:56.959Z,0
2017-04-23T01:12:37.578Z,0
2017-04-23T01:13:18.169Z,0
2017-04-23T01:13:58.781Z,0
2017-04-23T01:14:39.344Z,0
2017-04-23T01:15:19.930Z,0
2017-04-23T01:16:00.506Z,0
2017-04-23T01:16:41.078Z,0
2017-04-23T01:17:21.684Z,0
2017-04-23T01:18:02.265Z,0
2017-04-23T01:18:42.890Z,0
2017-04-23T01:19:23.503Z,0
2017-04-23T01:20:04.089Z,0
2017-04-23T01:20:44.690Z,0
2017-04-23T01:21:25.277Z,0
2017-04-23T01:22:05.844Z,0
2017-04-23T01:22:46.444Z,0
2017-04-23T01:23:27.008Z,0
2017-04-23T01:24:07.586Z,0
2017-04-23T01:24:48.159Z,0
2017-04-23T01:25:28.755Z,0
2017-04-23T01:26:09.342Z,0
2017-04-23T01:26:49.919Z,0
2017-04-23T01:27:30.532Z,0
2017-04-23T01:28:11.130Z,0
2017-04-23T01:28:51.744Z,0
2017-04-23T01:29:32.318Z,0
2017-04-23T01:30:12.925Z,0
2017-04-23T01:30:53.495Z,0
2017-04-23T01:31:34.067Z,0
2017-04-23T01:32:14.652Z,0
2017-04-23T01:32:55.287Z,0
2017-04-23T01:33:35.865Z,0
2017-04-23T01:34:16.479Z,0
2017-04-23T01:34:57.093Z,0
2017-04-23T01:35:37.652Z,0
2017-04-23T01:36:18.242Z,0
2017-04-23T01:36:58.818Z,0
2017-04-23T01:37:39.393Z,0
2017-04-23T01:38:19.976Z,0
2017-04-23T01:39:00.552Z,0
2017-04-23T01:39:41.143Z,0
2017-04-23T01:40:21.756Z,0
2017-04-23T01:41:02.331Z,0
2017-04-23T01:41:42.919Z,0
2017-04-23T01:42:23.511Z,0
2017-04-23T01:43:04.100Z,0
2017-04-23T01:43:44.710Z,0
2017-04-23T01:44:25.352Z,0
2017-04-23T01:45:05.974Z,0
2017-04-23T01:45:46.540Z,0
2017-04-23T01:46:27.170Z,0
2017-04-23T01:47:07.814Z,0
2017-04-23T01:47:48.386Z,0
2017-04-23T01:48:28.980Z,0
2017-04-23T01:49:09.558Z,0
2017-04-23T01:49:50.129Z,0
2017-04-23T01:50:30.710Z,0
2017-04-23T01:51:11.328Z,0
2017-04-23T01:51:51.911Z,0
2017-04-23T01:52:32.503Z,0
2017-04-23T01:53:13.101Z,0
2017-04-23T01:53:53.697Z,0
2017-04-23T01:54:34.272Z,0
2017-04-23T01:55:14.877Z,0
2017-04-23T01:55:55.459Z,0
2017-04-23T01:56:36.039Z,0
2017-04-23T01:57:16.622Z,0
2017-04-23T01:57:57.203Z,0
2017-04-23T01:58:37.782Z,0
2017-04-23T01:59:18.421Z,0
2017-04-23T01:59:59.013Z,0
2017-04-23T02:00:39.637Z,0
2017-04-23T02:01:20.224Z,0
2017-04-23T02:02:00.796Z,0
2017-04-23T02:02:41.397Z,0
2017-04-23T02:03:21.968Z,0
2017-04-23T02:04:02.533Z,0
2017-04-23T02:04:43.128Z,0
2017-04-23T02:05:23.696Z,0
2017-04-23T02:06:04.290Z,0
2017-04-23T02:06:44.854Z,0
2017-04-23T02:07:25.446Z,0
2017-04-23T02:08:06.025Z,0
2017-04-23T02:08:46.616Z,0
2017-04-23T02:09:27.225Z,0
2017-04-23T02:10:07.798Z,0
2017-04-23T02:10:48.375Z,0
2017-04-23T02:11:28.944Z,0
2017-04-23T02:12:09.549Z,0
2017-04-23T02:12:50.153Z,0
2017-04-23T02:13:30.727Z,0
2017-04-23T02:14:11.310Z,0
2017-04-23T02:14:51.922Z,0
2017-04-23T02:15:32.487Z,0
2017-04-23T02:16:13.091Z,0
2017-04-23T02:16:53.674Z,0
2017-04-23T02:17:34.257Z,0
2017-04-23T02:18:14.852Z,0
2017-04-23T02:18:55.459Z,0
2017-04-23T02:19:36.129Z,0
2017-04-23T02:20:16.744Z,0
2017-04-23T02:20:57.331Z,0
2017-04-23T02:21:37.919Z,0
2017-04-23T02:22:18.501Z,0
2017-04-23T02:22:59.089Z,0
2017-04-23T02:23:39.674Z,0
2017-04-23T02:24:20.260Z,0
2017-04-23T02:25:00.849Z,0
2017-04-23T02:25:41.443Z,0
2017-04-23T02:26:22.013Z,0
2017-04-23T02:27:02.599Z,0
2017-04-23T02:27:43.219Z,0
2017-04-23T02:28:23.808Z,0
2017-04-23T02:29:04.406Z,0
2017-04-23T02:29:44.986Z,0
2017-04-23T02:30:25.582Z,0
2017-04-23T02:31:06.227Z,0
2017-04-23T02:31:46.806Z,0
2017-04-23T02:32:27.379Z,0
2017-04-23T02:33:07.944Z,0
2017-04-23T02:33:48.622Z,0
2017-04-23T02:34:29.292Z,0
2017-04-23T02:35:09.884Z,0
2017-04-23T02:35:50.474Z,0
2017-04-23T02:36:31.056Z,0
2017-04-23T02:37:11.658Z,0
2017-04-23T02:37:52.296Z,0
2017-04-23T02:38:32.887Z,0
2017-04-23T02:39:13.466Z,0
2017-04-23T02:39:54.059Z,0
2017-04-23T02:40:34.656Z,0
2017-04-23T02:41:15.251Z,0
2017-04-23T02:41:55.852Z,0
2017-04-23T02:42:36.411Z,0
2017-04-23T02:43:17.007Z,0
2017-04-23T02:43:57.614Z,0
2017-04-23T02:44:38.229Z,0
2017-04-23T02:45:18.841Z,0
2017-04-23T02:45:59.401Z,0
2017-04-23T02:46:39.984Z,0
2017-04-23T02:47:20.567Z,0
2017-04-23T02:48:01.164Z,0
2017-04-23T02:48:41.753Z,0
2017-04-23T02:49:22.323Z,0
2017-04-23T02:50:02.897Z,0
2017-04-23T02:50:43.469Z,0
2017-04-23T02:51:24.033Z,0
2017-04-23T02:52:04.633Z,0
2017-04-23T02:52:45.221Z,0
2017-04-23T02:53:25.816Z,0
2017-04-23T02:54:06.423Z,0
2017-04-23T02:54:47.011Z,0
2017-04-23T02:55:27.591Z,0
2017-04-23T02:56:08.200Z,0
2017-04-23T02:56:48.764Z,0
2017-04-23T02:57:29.379Z,0
2017-04-23T02:58:09.983Z,0
2017-04-23T02:58:50.548Z,0
2017-04-23T02:59:31.139Z,0
2017-04-23T03:00:11.686Z,0
2017-04-23T03:00:52.255Z,0
2017-04-23T03:01:32.896Z,0
2017-04-23T03:02:13.455Z,0
2017-04-23T03:02:54.030Z,0
2017-04-23T03:03:34.623Z,0
2017-04-23T03:04:15.237Z,0
2017-04-23T03:04:55.846Z,0
2017-04-23T03:05:36.411Z,0
2017-04-23T03:06:16.983Z,0
2017-04-23T03:06:57.583Z,0
2017-04-23T03:07:38.150Z,0
2017-04-23T03:08:18.723Z,0
2017-04-23T03:08:59.327Z,0
2017-04-23T03:09:39.924Z,0
2017-04-23T03:10:20.513Z,0
2017-04-23T03:11:01.113Z,0
2017-04-23T03:11:41.711Z,0
2017-04-23T03:12:22.342Z,0
2017-04-23T03:13:02.968Z,0
2017-04-23T03:13:43.553Z,0
2017-04-23T03:14:24.133Z,0
2017-04-23T03:15:04.707Z,0
2017-04-23T03:15:45.281Z,0
2017-04-23T03:16:25.845Z,0
2017-04-23T03:17:06.423Z,0
2017-04-23T03:17:47.024Z,0
2017-04-23T03:18:27.611Z,0
2017-04-23T03:19:08.280Z,0
2017-04-23T03:19:48.855Z,0
2017-04-23T03:20:29.437Z,0
2017-04-23T03:21:10.012Z,0
2017-04-23T03:21:50.607Z,0
2017-04-23T03:22:31.187Z,0
2017-04-23T03:23:11.789Z,0
2017-04-23T03:23:52.404Z,0
2017-04-23T03:24:33.003Z,0
2017-04-23T03:25:13.573Z,0
2017-04-23T03:25:54.162Z,0
2017-04-23T03:26:34.738Z,0
2017-04-23T03:27:15.326Z,0
2017-04-23T03:27:55.894Z,0
2017-04-23T03:28:36.483Z,0
2017-04-23T03:29:17.058Z,0
2017-04-23T03:29:57.664Z,0
2017-04-23T03:30:38.251Z,0
2017-04-23T03:31:18.836Z,0
2017-04-23T03:31:59.417Z,0
2017-04-23T03:32:39.992Z,0
2017-04-23T03:33:20.581Z,0
2017-04-23T03:34:01.146Z,0
2017-04-23T03:34:41.761Z,0
2017-04-23T03:35:22.366Z,0
2017-04-23T03:36:02.964Z,0
2017-04-23T03:36:43.559Z,0
2017-04-23T03:37:24.135Z,0
2017-04-23T03:38:04.692Z,0
2017-04-23T03:38:45.295Z,0
2017-04-23T03:39:25.885Z,0
2017-04-23T03:40:06.472Z,0
2017-04-23T03:40:47.059Z,0
2017-04-23T03:41:27.647Z,0
2017-04-23T03:42:08.224Z,0
2017-04-23T03:42:48.813Z,0
2017-04-23T03:43:29.400Z,0
2017-04-23T03:44:09.992Z,0
2017-04-23T03:44:50.584Z,0
2017-04-23T03:45:31.191Z,0
2017-04-23T03:46:11.755Z,0
2017-04-23T03:46:52.339Z,0
2017-04-23T03:47:32.942Z,0
2017-04-23T03:48:13.528Z,0
2017-04-23T03:48:54.111Z,0
2017-04-23T03:49:34.686Z,0
2017-04-23T03:50:15.293Z,0
2017-04-23T03:50:55.875Z,0
2017-04-23T03:51:36.468Z,0
2017-04-23T03:52:17.054Z,0
2017-04-23T03:52:57.655Z,0
2017-04-23T03:53:38.249Z,0
2017-04-23T03:54:18.843Z,0
2017-04-23T03:54:59.452Z,0
2017-04-23T03:55:40.044Z,0
2017-04-23T03:56:20.683Z,0
2017-04-23T03:57:01.325Z,0
2017-04-23T03:57:41.922Z,0
2017-04-23T03:58:22.510Z,0
2017-04-23T03:59:03.123Z,0
2017-04-23T03:59:43.697Z,0
2017-04-23T04:00:24.285Z,0
2017-04-23T04:01:04.887Z,0
2017-04-23T04:01:45.481Z,0
2017-04-23T04:02:26.056Z,0
2017-04-23T04:03:06.675Z,0
2017-04-23T04:03:47.266Z,0
2017-04-23T04:04:27.837Z,0
2017-04-23T04:05:08.413Z,0
2017-04-23T04:05:49.057Z,0
2017-04-23T04:06:29.631Z,0
2017-04-23T04:07:10.208Z,0
2017-04-23T04:07:50.816Z,0
2017-04-23T04:08:31.407Z,0
2017-04-23T04:09:11.981Z,0
2017-04-23T04:09:52.557Z,0
2017-04-23T04:10:33.163Z,0
2017-04-23T04:11:13.744Z,0
2017-04-23T04:11:54.416Z,0
2017-04-23T04:12:35.029Z,0
2017-04-23T04:13:15.658Z,0
2017-04-23T04:13:56.253Z,0
2017-04-23T04:14:36.840Z,0
2017-04-23T04:15:17.422Z,0
2017-04-23T04:15:58.008Z,0
2017-04-23T04:16:38.611Z,0
2017-04-23T04:17:19.193Z,0
2017-04-23T04:17:59.767Z,0
2017-04-23T04:18:40.357Z,0
2017-04-23T04:19:20.954Z,0
2017-04-23T04:20:01.510Z,0
2017-04-23T04:20:42.090Z,0
2017-04-23T04:21:22.676Z,0
2017-04-23T04:22:03.270Z,0
2017-04-23T04:24:22.357Z,0
2017-04-23T04:25:02.950Z,0
2017-04-23T04:25:43.528Z,5
2017-04-23T04:26:24.108Z,5
2017-04-23T04:27:04.744Z,5
2017-04-23T04:27:45.327Z,5
2017-04-23T04:28:25.912Z,5
2017-04-23T04:29:06.498Z,5
2017-04-23T04:29:47.084Z,5
2017-04-23T04:30:27.680Z,5
2017-04-23T04:31:08.239Z,5
2017-04-23T04:31:48.849Z,5
2017-04-23T04:32:29.450Z,5
2017-04-23T04:33:10.046Z,5
2017-04-23T04:33:50.636Z,5
2017-04-23T04:34:31.242Z,5
2017-04-23T04:35:11.807Z,5
2017-04-23T04:35:52.438Z,5
2017-04-23T04:36:33.027Z,5
2017-04-23T04:37:13.608Z,5
2017-04-23T04:37:54.215Z,5
2017-04-23T04:38:34.814Z,5
2017-04-23T04:39:15.429Z,5
2017-04-23T04:39:56.002Z,5
2017-04-23T04:40:36.568Z,5
2017-04-23T04:41:17.185Z,5
2017-04-23T04:41:57.773Z,5
2017-04-23T04:42:38.371Z,5
2017-04-23T04:43:18.947Z,5
2017-04-23T04:43:59.529Z,5
2017-04-23T04:44:40.121Z,5
2017-04-23T04:45:20.716Z,5
2017-04-23T04:46:01.332Z,5
2017-04-23T04:46:41.894Z,5
2017-04-23T04:47:22.510Z,5
2017-04-23T04:48:03.148Z,5
2017-04-23T04:48:43.739Z,5
2017-04-23T04:49:24.401Z,5
2017-04-23T04:50:04.987Z,5
2017-04-23T04:50:45.578Z,5
2017-04-23T04:51:26.161Z,5
2017-04-23T04:52:06.761Z,10
2017-04-23T04:52:47.336Z,10
2017-04-23T04:53:27.920Z,10
2017-04-23T04:54:08.513Z,10
2017-04-23T04:54:49.088Z,10
2017-04-23T04:55:29.668Z,10
2017-04-23T04:56:10.263Z,10
2017-04-23T04:56:50.876Z,10
2017-04-23T04:57:31.462Z,10
2017-04-23T04:58:12.062Z,10
2017-04-23T04:58:52.650Z,10
2017-04-23T04:59:33.212Z,10
2017-04-23T05:00:13.797Z,10
2017-04-23T05:00:54.361Z,10
2017-04-23T05:01:34.929Z,10
2017-04-23T05:02:15.502Z,10
2017-04-23T05:02:56.077Z,10
2017-04-23T05:03:36.664Z,10
2017-04-23T05:04:17.237Z,10
2017-04-23T05:04:57.810Z,10
2017-04-23T05:05:38.408Z,10
2017-04-23T05:06:18.989Z,10
2017-04-23T05:06:59.562Z,10
2017-04-23T05:07:40.129Z,5
2017-04-23T05:08:20.692Z,5
2017-04-23T05:09:01.348Z,5
2017-04-23T05:09:41.935Z,5
2017-04-23T05:10:22.560Z,10
2017-04-23T05:11:03.129Z,10
2017-04-23T05:11:43.700Z,10
2017-04-23T05:12:24.304Z,10
2017-04-23T05:13:04.878Z,10
2017-04-23T05:13:45.455Z,10
2017-04-23T05:14:26.033Z,10
2017-04-23T05:15:06.621Z,10
2017-04-23T05:15:47.200Z,10
2017-04-23T05:16:27.802Z,10
2017-04-23T05:17:08.375Z,10
2017-04-23T05:17:48.953Z,15
2017-04-23T05:18:29.567Z,15
2017-04-23T05:19:10.152Z,15
2017-04-23T05:19:50.775Z,15
2017-04-23T05:20:31.349Z,10
2017-04-23T05:21:11.927Z,10
2017-04-23T05:21:52.496Z,10
2017-04-23T05:22:33.081Z,10
2017-04-23T05:23:13.641Z,10
2017-04-23T05:23:54.228Z,10
2017-04-23T05:24:34.805Z,10
2017-04-23T05:25:15.384Z,10
2017-04-23T05:25:55.954Z,10
2017-04-23T05:26:36.522Z,10
2017-04-23T05:27:17.124Z,10
2017-04-23T05:27:57.718Z,10
2017-04-23T05:28:38.326Z,10
2017-04-23T05:29:18.928Z,10
2017-04-23T05:29:59.502Z,10
2017-04-23T05:30:40.066Z,15
2017-04-23T05:31:20.655Z,15
2017-04-23T05:32:01.222Z,15
2017-04-23T05:32:41.804Z,15
2017-04-23T05:33:22.396Z,15
2017-04-23T05:34:02.970Z,15
2017-04-23T05:34:43.541Z,15
2017-04-23T05:35:24.129Z,20
2017-04-23T05:36:04.700Z,20
2017-04-23T05:36:45.267Z,20
2017-04-23T05:37:25.886Z,20
2017-04-23T05:38:06.522Z,15
2017-04-23T05:38:47.099Z,15
2017-04-23T05:39:27.699Z,15
2017-04-23T05:40:08.270Z,15
2017-04-23T05:40:48.841Z,15
2017-04-23T05:41:29.419Z,15
2017-04-23T05:42:09.990Z,15
2017-04-23T05:42:50.590Z,15
2017-04-23T05:43:31.140Z,15
2017-04-23T05:44:11.775Z,15
2017-04-23T05:44:52.345Z,15
2017-04-23T05:45:32.932Z,15
2017-04-23T05:46:13.521Z,15
2017-04-23T05:46:54.178Z,15
2017-04-23T05:47:34.768Z,20
2017-04-23T05:48:15.426Z,20
2017-04-23T05:48:56.007Z,20
2017-04-23T05:49:36.585Z,20
2017-04-23T05:50:17.156Z,15
2017-04-23T05:50:57.751Z,20
2017-04-23T05:51:38.455Z,20
2017-04-23T05:52:19.053Z,20
2017-04-23T05:52:59.623Z,15
2017-04-23T05:53:40.209Z,20
2017-04-23T05:54:20.814Z,15
2017-04-23T05:55:01.433Z,20
2017-04-23T05:55:42.129Z,20
2017-04-23T05:56:22.716Z,20
2017-04-23T05:57:03.313Z,20
2017-04-23T05:57:43.891Z,20
2017-04-23T05:58:24.476Z,20
2017-04-23T05:59:05.114Z,25
2017-04-23T05:59:45.670Z,25
2017-04-23T06:00:26.272Z,25
2017-04-23T06:01:06.889Z,25
2017-04-23T06:01:47.501Z,25
2017-04-23T06:02:28.106Z,25
2017-04-23T06:03:11.393Z,30
2017-04-23T06:03:51.972Z,30
2017-04-23T06:04:32.560Z,35
2017-04-23T06:05:13.157Z,40
2017-04-23T06:05:53.746Z,45
2017-04-23T06:06:34.326Z,40
2017-04-23T06:07:14.916Z,40
2017-04-23T06:07:55.520Z,40
2017-04-23T06:08:36.097Z,40
2017-04-23T06:09:16.691Z,40
2017-04-23T06:09:57.264Z,40
2017-04-23T06:10:37.831Z,40
2017-04-23T06:11:18.424Z,40
2017-04-23T06:11:59.028Z,45
2017-04-23T06:12:39.647Z,50
2017-04-23T06:13:20.216Z,50
2017-04-23T06:14:00.822Z,50
2017-04-23T06:14:41.438Z,50
2017-04-23T06:15:22.077Z,50
2017-04-23T06:16:02.681Z,40
2017-04-23T06:16:43.345Z,35
2017-04-23T06:17:23.945Z,35
2017-04-23T06:18:04.578Z,30
2017-04-23T06:18:45.149Z,25
2017-04-23T06:19:25.737Z,25
2017-04-23T06:20:06.357Z,25
2017-04-23T06:20:46.930Z,25
2017-04-23T06:21:27.512Z,25
2017-04-23T06:22:08.097Z,25
2017-04-23T06:22:48.701Z,25
2017-04-23T06:23:29.421Z,25
2017-04-23T06:24:10.022Z,30
2017-04-23T06:24:50.615Z,30
2017-04-23T06:25:31.196Z,30
2017-04-23T06:26:11.794Z,30
2017-04-23T06:26:52.414Z,30
2017-04-23T06:27:32.991Z,30
2017-04-23T06:28:13.572Z,30
2017-04-23T06:28:54.173Z,30
2017-04-23T06:29:34.791Z,30
2017-04-23T06:30:15.382Z,30
2017-04-23T06:30:55.978Z,30
2017-04-23T06:31:37.344Z,35
2017-04-23T06:32:17.965Z,35
2017-04-23T06:32:58.546Z,35
2017-04-23T06:33:39.168Z,40
2017-04-23T06:34:19.734Z,40
2017-04-23T06:35:00.303Z,40
2017-04-23T06:35:40.915Z,45
2017-04-23T06:36:21.544Z,45
2017-04-23T06:37:02.164Z,45
2017-04-23T06:37:42.818Z,45
2017-04-23T06:38:23.407Z,50
2017-04-23T06:39:03.974Z,50
2017-04-23T06:39:44.544Z,50
2017-04-23T06:40:25.121Z,50
2017-04-23T06:41:05.716Z,50
2017-04-23T06:41:46.278Z,45
2017-04-23T06:42:26.852Z,35
2017-04-23T06:43:07.467Z,35
2017-04-23T06:43:48.052Z,30
2017-04-23T06:44:28.625Z,30
2017-04-23T06:45:09.217Z,30
2017-04-23T06:45:49.806Z,30
2017-04-23T06:46:30.375Z,30
2017-04-23T06:47:11.006Z,25
2017-04-23T06:47:51.583Z,25
2017-04-23T06:48:32.169Z,25
2017-04-23T06:49:12.764Z,25
2017-04-23T06:49:53.397Z,25
2017-04-23T06:50:33.987Z,25
2017-04-23T06:51:14.539Z,25
2017-04-23T06:51:55.152Z,30
2017-04-23T06:52:35.793Z,30
2017-04-23T06:53:16.369Z,35
2017-04-23T06:53:56.945Z,45
2017-04-23T06:54:37.544Z,45
2017-04-23T06:55:18.238Z,50
2017-04-23T06:55:58.842Z,50
2017-04-23T06:56:39.432Z,50
2017-04-23T06:57:20.004Z,50
2017-04-23T06:58:00.587Z,50
2017-04-23T06:58:41.196Z,55
2017-04-23T06:59:21.797Z,50
2017-04-23T07:00:02.373Z,50
2017-04-23T07:00:42.979Z,60
2017-04-23T07:01:23.584Z,65
2017-04-23T07:02:04.189Z,65
2017-04-23T07:02:44.797Z,55
2017-04-23T07:03:25.430Z,50
2017-04-23T07:04:06.008Z,50
2017-04-23T07:04:46.602Z,50
2017-04-23T07:05:27.204Z,45
2017-04-23T07:06:07.818Z,45
2017-04-23T07:06:48.399Z,45
2017-04-23T07:07:28.966Z,40
2017-04-23T07:08:09.551Z,40
2017-04-23T07:08:50.125Z,35
2017-04-23T07:09:30.714Z,35
2017-04-23T07:10:11.282Z,35
2017-04-23T07:10:51.854Z,35
2017-04-23T07:11:32.430Z,40
2017-04-23T07:12:13.002Z,40
2017-04-23T07:12:53.585Z,40
2017-04-23T07:13:34.158Z,45
2017-04-23T07:14:14.771Z,50
2017-04-23T07:14:55.356Z,50
2017-04-23T07:15:35.928Z,50
2017-04-23T07:16:16.528Z,55
2017-04-23T07:16:57.137Z,50
2017-04-23T07:17:37.717Z,50
2017-04-23T07:18:18.304Z,50
2017-04-23T07:18:58.887Z,50
2017-04-23T07:19:39.463Z,55
2017-04-23T07:20:20.119Z,60
2017-04-23T07:21:00.791Z,65
2017-04-23T07:21:41.427Z,70
2017-04-23T07:22:21.991Z,70
2017-04-23T07:23:02.557Z,70
2017-04-23T07:23:43.153Z,90
2017-04-23T07:24:23.873Z,100
2017-04-23T07:25:04.390Z,105
2017-04-23T07:25:44.968Z,85
2017-04-23T07:26:25.627Z,75
2017-04-23T07:27:06.251Z,75
2017-04-23T07:27:46.850Z,65
2017-04-23T07:28:27.437Z,65
2017-04-23T07:29:08.000Z,65
2017-04-23T07:29:48.573Z,75
2017-04-23T07:30:29.199Z,80
2017-04-23T07:31:09.816Z,80
2017-04-23T07:31:50.389Z,80
2017-04-23T07:32:30.977Z,95
2017-04-23T07:33:11.596Z,120
2017-04-23T07:33:52.208Z,155
2017-04-23T07:34:32.830Z,140
2017-04-23T07:35:13.480Z,155
2017-04-23T07:35:53.983Z,165
2017-04-23T07:36:34.597Z,200
2017-04-23T07:37:15.242Z,265
2017-04-23T07:37:55.791Z,280
2017-04-23T07:38:36.428Z,295
2017-04-23T07:39:17.001Z,550
2017-04-23T07:39:57.588Z,295
2017-04-23T07:40:38.184Z,310
2017-04-23T07:41:18.767Z,290
2017-04-23T07:41:59.342Z,245
2017-04-23T07:42:39.961Z,200
2017-04-23T07:43:20.565Z,150
2017-04-23T07:44:01.145Z,120
2017-04-23T07:44:41.715Z,115
2017-04-23T07:45:22.326Z,135
2017-04-23T07:46:02.927Z,175
2017-04-23T07:46:43.542Z,205
2017-04-23T07:47:24.134Z,220
2017-04-23T07:48:04.746Z,205
2017-04-23T07:48:45.323Z,205
2017-04-23T07:49:25.917Z,245
2017-04-23T07:50:06.520Z,175
2017-04-23T07:50:47.137Z,130
2017-04-23T07:51:27.726Z,105
2017-04-23T07:52:08.300Z,100
2017-04-23T07:52:48.872Z,110
2017-04-23T07:53:29.464Z,130
2017-04-23T07:54:10.034Z,150
2017-04-23T07:54:50.642Z,125
2017-04-23T07:55:31.236Z,100
2017-04-23T07:56:11.899Z,110
2017-04-23T07:56:52.487Z,140
2017-04-23T07:57:33.141Z,180
2017-04-23T07:58:13.746Z,190
2017-04-23T07:58:54.352Z,180
2017-04-23T07:59:34.959Z,170
2017-04-23T08:00:15.538Z,160
2017-04-23T08:00:56.112Z,145
2017-04-23T08:01:36.700Z,145
2017-04-23T08:02:17.313Z,160
2017-04-23T08:02:57.894Z,230
2017-04-23T08:03:38.494Z,205
2017-04-23T08:04:19.073Z,175
2017-04-23T08:04:59.652Z,125
2017-04-23T08:05:40.285Z,105
2017-04-23T08:06:20.906Z,105
2017-04-23T08:07:01.497Z,95
2017-04-23T08:07:42.068Z,80
2017-04-23T08:08:22.660Z,70
2017-04-23T08:09:03.233Z,70
2017-04-23T08:09:43.844Z,75
2017-04-23T08:10:24.403Z,75
2017-04-23T08:11:04.975Z,75
2017-04-23T08:11:45.639Z,90
2017-04-23T08:12:26.237Z,105
2017-04-23T08:13:06.859Z,145
2017-04-23T08:13:47.490Z,180
2017-04-23T08:14:28.083Z,150
2017-04-23T08:15:08.704Z,145
2017-04-23T08:15:49.290Z,130
2017-04-23T08:16:29.887Z,105
2017-04-23T08:17:10.466Z,95
2017-04-23T08:17:51.066Z,95
2017-04-23T08:18:31.704Z,120
2017-04-23T08:19:12.318Z,185
2017-04-23T08:19:52.878Z,200
2017-04-23T08:20:33.461Z,165
2017-04-23T08:21:14.046Z,125
2017-04-23T08:21:54.611Z,105
2017-04-23T08:22:35.174Z,105
2017-04-23T08:23:15.763Z,105
2017-04-23T08:23:56.351Z,105
2017-04-23T08:24:36.935Z,115
2017-04-23T08:25:17.532Z,105
2017-04-23T08:25:58.157Z,105
2017-04-23T08:26:38.773Z,110
2017-04-23T08:27:19.397Z,115
2017-04-23T08:27:59.977Z,110
2017-04-23T08:28:40.557Z,105
2017-04-23T08:29:21.144Z,105
2017-04-23T08:30:01.740Z,105
2017-04-23T08:30:42.317Z,105
2017-04-23T08:31:22.892Z,110
2017-04-23T08:32:03.490Z,115
2017-04-23T08:32:44.110Z,130
2017-04-23T08:33:24.715Z,170
2017-04-23T08:34:05.308Z,225
2017-04-23T08:34:45.930Z,205
2017-04-23T08:35:26.547Z,225
2017-04-23T08:36:07.139Z,245
2017-04-23T08:36:47.741Z,260
2017-04-23T08:37:28.353Z,270
2017-04-23T08:38:08.928Z,255
2017-04-23T08:38:49.514Z,245
2017-04-23T08:39:30.108Z,245
2017-04-23T08:40:10.705Z,245
2017-04-23T08:40:51.289Z,255
2017-04-23T08:41:31.884Z,265
2017-04-23T08:42:12.480Z,250
2017-04-23T08:42:53.072Z,245
2017-04-23T08:43:33.643Z,230
2017-04-23T08:44:14.234Z,220
2017-04-23T08:44:54.860Z,185
2017-04-23T08:45:35.449Z,135
2017-04-23T08:46:16.040Z,110
2017-04-23T08:46:56.612Z,100
2017-04-23T08:47:37.182Z,90
2017-04-23T08:48:17.753Z,75
2017-04-23T08:48:58.328Z,65
2017-04-23T08:49:38.903Z,65
2017-04-23T08:50:19.489Z,60
2017-04-23T08:51:00.062Z,60
2017-04-23T08:51:40.648Z,65
2017-04-23T08:52:21.225Z,65
2017-04-23T08:53:01.830Z,65
2017-04-23T08:53:42.404Z,60
2017-04-23T08:54:23.591Z,55
2017-04-23T08:55:04.160Z,50
2017-04-23T08:55:44.765Z,50
2017-04-23T08:56:25.350Z,55
2017-04-23T08:57:05.897Z,60
2017-04-23T08:57:46.480Z,50
2017-04-23T08:58:27.082Z,40
2017-04-23T08:59:07.674Z,25
2017-04-23T08:59:48.270Z,25
2017-04-23T09:00:28.859Z,25
2017-04-23T09:01:09.424Z,25
2017-04-23T09:01:50.018Z,35
2017-04-23T09:02:30.605Z,45
2017-04-23T09:03:11.250Z,55
2017-04-23T09:03:51.809Z,65
2017-04-23T09:04:32.391Z,80
2017-04-23T09:05:12.987Z,100
2017-04-23T09:05:53.589Z,150
2017-04-23T09:06:34.184Z,165
2017-04-23T09:07:14.821Z,175
2017-04-23T09:07:55.401Z,180
2017-04-23T09:08:35.959Z,185
2017-04-23T09:09:16.558Z,150
2017-04-23T09:09:57.171Z,115
2017-04-23T09:10:37.748Z,110
2017-04-23T09:11:18.330Z,120
2017-04-23T09:11:58.901Z,140
2017-04-23T09:12:39.495Z,155
2017-04-23T09:13:20.116Z,180
2017-04-23T09:14:00.732Z,210
2017-04-23T09:14:41.295Z,255
2017-04-23T09:15:21.876Z,245
2017-04-23T09:16:02.450Z,245
2017-04-23T09:16:43.022Z,225
2017-04-23T09:17:23.648Z,265
2017-04-23T09:18:04.213Z,260
2017-04-23T09:18:44.824Z,240
2017-04-23T09:19:25.409Z,250
2017-04-23T09:20:05.976Z,250
2017-04-23T09:20:46.545Z,225
2017-04-23T09:21:27.138Z,220
2017-04-23T09:22:07.730Z,215
2017-04-23T09:22:48.339Z,205
2017-04-23T09:23:28.923Z,205
2017-04-23T09:24:09.539Z,210
2017-04-23T09:24:50.155Z,215
2017-04-23T09:25:30.723Z,210
2017-04-23T09:26:11.305Z,185
2017-04-23T09:26:51.904Z,165
2017-04-23T09:27:32.483Z,155
2017-04-23T09:28:13.055Z,155
2017-04-23T09:28:53.632Z,155
2017-04-23T09:29:34.193Z,150
2017-04-23T09:30:14.782Z,135
2017-04-23T09:30:55.403Z,115
2017-04-23T09:31:36.001Z,80
2017-04-23T09:32:16.599Z,60
2017-04-23T09:32:57.201Z,60
2017-04-23T09:33:37.780Z,60
2017-04-23T09:34:18.357Z,50
2017-04-23T09:34:58.965Z,45
2017-04-23T09:35:39.569Z,40
2017-04-23T09:36:20.165Z,40
2017-04-23T09:37:00.748Z,40
2017-04-23T09:37:41.317Z,40
2017-04-23T09:38:21.901Z,40
2017-04-23T09:39:02.470Z,45
2017-04-23T09:39:43.121Z,50
2017-04-23T09:40:23.721Z,55
2017-04-23T09:41:04.285Z,50
2017-04-23T09:41:44.878Z,55
2017-04-23T09:42:25.457Z,55
2017-04-23T09:43:06.040Z,55
2017-04-23T09:43:46.638Z,55
2017-04-23T09:44:27.271Z,55
2017-04-23T09:45:07.867Z,55
2017-04-23T09:45:48.453Z,65
2017-04-23T09:46:29.064Z,75
2017-04-23T09:47:09.625Z,80
2017-04-23T09:47:50.206Z,80